createdAt,value
2018-05-02T00:01:04.389Z,7.10
2018-05-02T00:03:31.827Z,7.20
2018-05-02T00:06:00.030Z,7.10
2018-05-02T00:08:27.460Z,7.10
2018-05-02T00:10:55.657Z,7.20
2018-05-02T00:13:23.083Z,7.10
2018-05-02T00:15:50.593Z,7.20
2018-05-02T00:18:18.013Z,7.20
2018-05-02T00:20:45.496Z,7.20
2018-05-02T00:23:12.943Z,7.20
2018-05-02T00:25:40.524Z,7.30
2018-05-02T00:28:07.964Z,7.30
2018-05-02T00:30:35.428Z,7.30
2018-05-02T00:33:02.886Z,7.30
2018-05-02T00:35:30.320Z,7.20
2018-05-02T00:37:57.753Z,7.30
2018-05-02T00:40:25.972Z,7.30
2018-05-02T00:42:53.448Z,7.30
2018-05-02T00:45:20.976Z,7.30
2018-05-02T00:47:48.383Z,7.20
2018-05-02T00:50:16.596Z,7.20
2018-05-02T00:52:44.085Z,7.20
2018-05-02T00:55:11.519Z,7.20
2018-05-02T00:57:38.945Z,7.10
2018-05-02T01:00:06.430Z,7.00
2018-05-02T01:02:33.839Z,6.80
2018-05-02T01:05:02.036Z,6.70
2018-05-02T01:07:29.457Z,6.60
2018-05-02T01:09:56.888Z,6.60
2018-05-02T01:12:24.353Z,6.60
2018-05-02T01:14:51.785Z,6.60
2018-05-02T01:17:19.216Z,6.50
2018-05-02T01:19:46.640Z,6.60
2018-05-02T01:22:14.150Z,6.50
2018-05-02T01:24:41.589Z,6.50
2018-05-02T01:27:09.021Z,6.40
2018-05-02T01:29:37.256Z,6.50
2018-05-02T01:32:04.689Z,6.40
2018-05-02T01:34:32.117Z,6.50
2018-05-02T01:37:00.328Z,6.50
2018-05-02T01:39:27.754Z,6.50
2018-05-02T01:41:55.192Z,6.60
2018-05-02T01:44:23.425Z,6.50
2018-05-02T01:46:50.877Z,6.40
2018-05-02T01:49:24.361Z,6.50
2018-05-02T01:51:51.769Z,6.40
2018-05-02T01:54:19.198Z,6.40
2018-05-02T01:56:46.632Z,6.40
2018-05-02T01:59:14.071Z,6.50
2018-05-02T02:01:41.513Z,6.40
2018-05-02T02:04:09.747Z,6.30
2018-05-02T02:06:37.176Z,6.20
2018-05-02T02:09:05.513Z,6.10
2018-05-02T02:11:33.703Z,6.20
2018-05-02T02:14:01.137Z,6.10
2018-05-02T02:16:29.336Z,6.20
2018-05-02T02:18:56.754Z,6.20
2018-05-02T02:21:24.203Z,6.20
2018-05-02T02:23:51.624Z,6.20
2018-05-02T02:26:19.060Z,6.20
2018-05-02T02:28:46.552Z,6.20
2018-05-02T02:31:13.985Z,6.20
2018-05-02T02:33:41.401Z,6.10
2018-05-02T02:36:09.609Z,6.00
2018-05-02T02:38:37.088Z,6.00
2018-05-02T02:41:04.556Z,6.00
2018-05-02T02:43:31.980Z,6.00
2018-05-02T02:45:59.472Z,6.00
2018-05-02T02:48:26.925Z,6.00
2018-05-02T02:50:54.353Z,6.00
2018-05-02T02:53:21.772Z,6.00
2018-05-02T02:55:49.961Z,6.00
2018-05-02T02:58:17.453Z,5.90
2018-05-02T03:00:44.875Z,6.10
2018-05-02T03:03:12.307Z,6.00
2018-05-02T03:05:40.509Z,6.00
2018-05-02T03:08:08.006Z,6.00
2018-05-02T03:10:35.429Z,6.10
2018-05-02T03:13:02.864Z,6.10
2018-05-02T03:15:31.084Z,6.00
2018-05-02T03:17:58.521Z,6.00
2018-05-02T03:20:25.949Z,6.00
2018-05-02T03:22:54.184Z,6.00
2018-05-02T03:25:21.628Z,5.90
2018-05-02T03:27:49.066Z,6.10
2018-05-02T03:30:16.495Z,6.10
2018-05-02T03:32:44.008Z,6.20
2018-05-02T03:35:11.539Z,6.20
2018-05-02T03:37:38.969Z,6.10
2018-05-02T03:40:06.408Z,6.10
2018-05-02T03:42:34.740Z,6.10
2018-05-02T03:45:02.172Z,6.00
2018-05-02T03:47:29.652Z,6.00
2018-05-02T03:49:57.083Z,6.00
2018-05-02T03:52:24.567Z,6.00
2018-05-02T03:54:51.986Z,6.00
2018-05-02T03:57:19.481Z,6.00
2018-05-02T03:59:58.768Z,6.00
2018-05-02T04:02:38.976Z,6.10
2018-05-02T04:05:18.599Z,6.00
2018-05-02T04:07:46.019Z,6.10
2018-05-02T04:10:14.221Z,6.20
2018-05-02T04:12:41.680Z,6.10
2018-05-02T04:15:09.100Z,6.20
2018-05-02T04:17:37.331Z,6.30
2018-05-02T04:20:04.780Z,6.20
2018-05-02T04:22:32.216Z,6.20
2018-05-02T04:24:59.642Z,6.30
2018-05-02T04:27:27.170Z,6.20
2018-05-02T04:29:54.607Z,6.20
2018-05-02T04:32:22.048Z,6.30
2018-05-02T04:34:50.019Z,6.30
2018-05-02T04:37:17.491Z,6.30
2018-05-02T04:39:44.953Z,6.30
2018-05-02T04:42:12.400Z,6.30
2018-05-02T04:44:39.865Z,6.40
2018-05-02T04:47:07.284Z,6.40
2018-05-02T04:49:34.769Z,6.40
2018-05-02T04:52:02.204Z,6.50
2018-05-02T04:54:29.696Z,6.60
2018-05-02T04:56:57.293Z,6.70
2018-05-02T04:59:24.856Z,6.70
2018-05-02T05:01:52.346Z,6.70
2018-05-02T05:04:19.831Z,6.80
2018-05-02T05:06:47.272Z,6.80
2018-05-02T05:09:14.718Z,6.80
2018-05-02T05:11:42.189Z,6.90
2018-05-02T05:14:09.645Z,6.90
2018-05-02T05:16:37.184Z,7.00
2018-05-02T05:19:04.612Z,7.00
2018-05-02T05:21:32.824Z,7.10
2018-05-02T05:24:00.239Z,7.00
2018-05-02T05:26:28.444Z,7.20
2018-05-02T05:28:55.916Z,7.10
2018-05-02T05:31:23.345Z,7.20
2018-05-02T05:33:50.768Z,7.20
2018-05-02T05:36:19.004Z,7.30
2018-05-02T05:38:46.545Z,7.20
2018-05-02T05:41:14.206Z,7.30
2018-05-02T05:43:41.657Z,7.40
2018-05-02T05:46:09.872Z,7.40
2018-05-02T05:48:37.328Z,7.40
2018-05-02T05:51:04.756Z,7.40
2018-05-02T05:53:32.180Z,7.50
2018-05-02T05:55:59.672Z,7.60
2018-05-02T05:58:27.140Z,7.70
2018-05-02T06:00:54.765Z,7.70
2018-05-02T06:03:22.145Z,7.80
2018-05-02T06:05:49.568Z,7.90
2018-05-02T06:08:17.054Z,8.00
2018-05-02T06:10:44.503Z,8.00
2018-05-02T06:13:12.060Z,8.00
2018-05-02T06:15:39.485Z,8.00
2018-05-02T06:18:07.695Z,8.20
2018-05-02T06:20:35.147Z,8.10
2018-05-02T06:23:02.573Z,8.20
2018-05-02T06:25:30.780Z,8.30
2018-05-02T06:27:58.233Z,8.20
2018-05-02T06:30:25.676Z,8.40
2018-05-02T06:32:53.131Z,8.50
2018-05-02T06:35:21.314Z,8.60
2018-05-02T06:37:48.857Z,8.60
2018-05-02T06:40:16.332Z,8.70
2018-05-02T06:42:43.754Z,8.80
2018-05-02T06:45:12.063Z,9.10
2018-05-02T06:47:39.727Z,9.00
2018-05-02T06:50:07.160Z,9.20
2018-05-02T06:52:34.636Z,9.30
2018-05-02T06:55:02.097Z,9.40
2018-05-02T06:57:29.505Z,9.50
2018-05-02T06:59:57.722Z,9.50
2018-05-02T07:02:25.178Z,9.40
2018-05-02T07:04:52.635Z,9.60
2018-05-02T07:07:20.120Z,9.70
2018-05-02T07:09:47.552Z,9.70
2018-05-02T07:12:15.003Z,9.80
2018-05-02T07:14:42.481Z,10.00
2018-05-02T07:17:09.950Z,10.10
2018-05-02T07:19:37.478Z,10.20
2018-05-02T07:22:04.968Z,10.30
2018-05-02T07:24:32.404Z,10.50
2018-05-02T07:26:59.964Z,10.70
2018-05-02T07:29:27.414Z,10.80
2018-05-02T07:31:54.851Z,10.80
2018-05-02T07:34:22.334Z,10.80
2018-05-02T07:36:49.816Z,10.90
2018-05-02T07:39:17.363Z,11.00
2018-05-02T07:41:44.890Z,11.10
2018-05-02T07:44:12.366Z,11.20
2018-05-02T07:46:39.823Z,11.40
2018-05-02T07:49:07.275Z,11.50
2018-05-02T07:51:34.823Z,11.70
2018-05-02T07:54:02.284Z,11.70
2018-05-02T07:56:29.778Z,11.80
2018-05-02T07:58:57.143Z,11.90
2018-05-02T08:01:25.468Z,12.10
2018-05-02T08:03:53.025Z,12.00
2018-05-02T08:06:20.440Z,12.10
2018-05-02T08:08:48.652Z,12.30
2018-05-02T08:11:16.080Z,12.20
2018-05-02T08:13:43.508Z,12.30
2018-05-02T08:16:10.962Z,12.40
2018-05-02T08:18:38.575Z,12.50
2018-05-02T08:21:06.035Z,12.60
2018-05-02T08:23:33.464Z,12.70
2018-05-02T08:26:00.912Z,12.70
2018-05-02T08:28:29.088Z,12.90
2018-05-02T08:30:56.536Z,12.90
2018-05-02T08:33:24.740Z,13.10
2018-05-02T08:35:52.238Z,13.10
2018-05-02T08:38:19.677Z,13.20
2018-05-02T08:40:47.115Z,13.40
2018-05-02T08:43:14.616Z,13.40
2018-05-02T08:45:42.131Z,13.50
2018-05-02T08:48:09.587Z,13.60
2018-05-02T08:50:37.043Z,13.60
2018-05-02T08:53:04.474Z,13.60
2018-05-02T08:55:32.059Z,13.80
2018-05-02T08:57:59.514Z,13.90
2018-05-02T09:00:26.936Z,14.00
2018-05-02T09:02:55.128Z,14.20
2018-05-02T09:05:22.573Z,14.10
2018-05-02T09:07:50.793Z,14.30
2018-05-02T09:10:18.335Z,14.30
2018-05-02T09:12:45.748Z,14.40
2018-05-02T09:15:13.958Z,14.60
2018-05-02T09:17:41.419Z,14.50
2018-05-02T09:20:08.845Z,14.70
2018-05-02T09:22:37.049Z,14.80
2018-05-02T09:25:04.554Z,14.80
2018-05-02T09:27:31.984Z,14.90
2018-05-02T09:29:59.437Z,14.90
2018-05-02T09:32:26.885Z,15.00
2018-05-02T09:34:54.357Z,15.10
2018-05-02T09:37:21.796Z,15.10
2018-05-02T09:39:49.345Z,15.20
2018-05-02T09:42:16.775Z,15.20
2018-05-02T09:44:44.223Z,15.30
2018-05-02T09:47:12.427Z,15.50
2018-05-02T09:49:39.894Z,15.40
2018-05-02T09:52:07.376Z,15.40
2018-05-02T09:54:34.775Z,15.50
2018-05-02T09:57:02.224Z,15.60
2018-05-02T09:59:30.454Z,15.60
2018-05-02T10:01:57.902Z,15.60
2018-05-02T10:04:25.433Z,15.70
2018-05-02T10:06:52.792Z,15.90
2018-05-02T10:09:20.227Z,16.00
2018-05-02T10:11:47.681Z,16.00
2018-05-02T10:14:15.910Z,16.20
2018-05-02T10:16:43.349Z,16.10
2018-05-02T10:19:10.792Z,16.20
2018-05-02T10:21:38.268Z,16.00
2018-05-02T10:24:05.755Z,16.10
2018-05-02T10:26:33.185Z,16.10
2018-05-02T10:29:00.616Z,16.10
2018-05-02T10:31:28.183Z,16.20
2018-05-02T10:33:55.597Z,16.20
2018-05-02T10:36:23.812Z,16.30
2018-05-02T10:38:51.242Z,16.20
2018-05-02T10:41:18.824Z,16.20
2018-05-02T10:43:46.298Z,16.30
2018-05-02T10:46:13.841Z,16.50
2018-05-02T10:48:41.257Z,16.60
2018-05-02T10:51:09.480Z,16.90
2018-05-02T10:53:36.926Z,16.80
2018-05-02T10:56:04.356Z,17.00
2018-05-02T10:58:32.560Z,17.00
2018-05-02T11:01:00.015Z,17.00
2018-05-02T11:03:27.504Z,17.00
2018-05-02T11:05:55.053Z,17.00
2018-05-02T11:08:22.502Z,16.90
2018-05-02T11:10:50.039Z,17.00
2018-05-02T11:13:17.412Z,16.90
2018-05-02T11:15:44.873Z,16.70
2018-05-02T11:18:12.317Z,16.70
2018-05-02T11:20:39.760Z,16.80
2018-05-02T11:23:07.197Z,16.90
2018-05-02T11:25:34.621Z,17.00
2018-05-02T11:28:02.080Z,17.20
2018-05-02T11:30:29.553Z,17.30
2018-05-02T11:32:57.761Z,17.30
2018-05-02T11:35:25.173Z,17.30
2018-05-02T11:37:52.612Z,17.30
2018-05-02T11:40:20.161Z,17.30
2018-05-02T11:42:47.709Z,17.30
2018-05-02T11:45:15.270Z,17.30
2018-05-02T11:47:42.731Z,17.40
2018-05-02T11:50:10.213Z,17.40
2018-05-02T11:52:37.656Z,17.40
2018-05-02T11:55:05.112Z,17.50
2018-05-02T11:57:32.562Z,17.50
2018-05-02T11:59:59.997Z,17.50
2018-05-02T12:02:27.443Z,17.40
2018-05-02T12:04:54.882Z,17.50
2018-05-02T12:07:23.097Z,17.70
2018-05-02T12:09:50.532Z,17.70
2018-05-02T12:12:17.991Z,17.90
2018-05-02T12:14:46.198Z,18.10
2018-05-02T12:17:13.656Z,18.00
2018-05-02T12:19:41.197Z,18.20
2018-05-02T12:22:08.648Z,18.10
2018-05-02T12:24:36.104Z,18.10
2018-05-02T12:27:03.665Z,17.90
2018-05-02T12:29:31.084Z,17.60
2018-05-02T12:31:59.286Z,17.60
2018-05-02T12:34:26.749Z,17.60
2018-05-02T12:36:54.188Z,17.70
2018-05-02T12:39:21.632Z,17.80
2018-05-02T12:41:49.854Z,18.10
2018-05-02T12:44:17.299Z,18.10
2018-05-02T12:46:44.859Z,18.20
2018-05-02T12:49:12.327Z,18.30
2018-05-02T12:51:39.751Z,18.30
2018-05-02T12:54:07.200Z,18.30
2018-05-02T12:56:34.674Z,18.50
2018-05-02T12:59:02.124Z,18.60
2018-05-02T13:01:29.559Z,18.70
2018-05-02T13:03:56.998Z,18.70
2018-05-02T13:06:25.196Z,18.60
2018-05-02T13:08:52.694Z,18.50
2018-05-02T13:11:20.208Z,18.40
2018-05-02T13:13:48.424Z,18.60
2018-05-02T13:16:15.889Z,18.50
2018-05-02T13:21:18.249Z,18.50
2018-05-02T13:23:45.668Z,18.40
2018-05-02T13:26:13.865Z,18.60
2018-05-02T13:28:41.349Z,18.50
2018-05-02T13:31:08.785Z,18.80
2018-05-02T13:33:36.224Z,18.90
2018-05-02T13:36:03.671Z,19.10
2018-05-02T13:38:31.894Z,19.20
2018-05-02T13:40:59.437Z,19.10
2018-05-02T13:43:26.894Z,19.30
2018-05-02T13:45:54.379Z,19.30
2018-05-02T13:48:21.934Z,19.30
2018-05-02T13:50:49.375Z,19.40
2018-05-02T13:53:16.940Z,19.30
2018-05-02T13:55:44.485Z,19.30
2018-05-02T13:58:11.961Z,19.40
2018-05-02T14:00:39.495Z,19.50
2018-05-02T14:03:06.929Z,19.40
2018-05-02T14:05:34.428Z,19.60
2018-05-02T14:08:01.881Z,19.70
2018-05-02T14:10:29.336Z,19.60
2018-05-02T14:12:56.768Z,19.80
2018-05-02T14:15:24.216Z,19.90
2018-05-02T14:17:51.663Z,20.00
2018-05-02T14:20:19.168Z,20.30
2018-05-02T14:22:46.618Z,20.30
2018-05-02T14:25:14.069Z,20.20
2018-05-02T14:27:41.514Z,20.30
2018-05-02T14:30:09.073Z,20.30
2018-05-02T14:32:36.527Z,20.40
2018-05-02T14:35:03.960Z,20.20
2018-05-02T14:37:31.388Z,20.10
2018-05-02T14:39:58.921Z,20.20
2018-05-02T14:42:26.354Z,20.10
2018-05-02T14:44:53.808Z,20.10
2018-05-02T14:47:21.380Z,19.90
2018-05-02T14:49:48.810Z,19.70
2018-05-02T14:52:16.234Z,19.70
2018-05-02T14:54:43.674Z,19.80
2018-05-02T14:57:11.157Z,20.10
2018-05-02T14:59:39.474Z,20.40
2018-05-02T15:02:07.020Z,20.40
2018-05-02T15:04:34.357Z,20.50
2018-05-02T15:07:02.549Z,20.80
2018-05-02T15:09:29.989Z,20.80
2018-05-02T15:11:57.499Z,20.90
2018-05-02T15:14:24.920Z,21.00
2018-05-02T15:16:52.369Z,20.90
2018-05-02T15:19:19.836Z,21.10
2018-05-02T15:21:47.261Z,21.30
2018-05-02T15:24:15.464Z,22.60
2018-05-02T15:26:42.908Z,22.50
2018-05-02T15:29:10.483Z,22.80
2018-05-02T15:31:37.892Z,23.30
2018-05-02T15:34:05.395Z,23.50
2018-05-02T15:36:32.983Z,24.10
2018-05-02T15:39:00.435Z,24.10
2018-05-02T15:41:27.869Z,24.40
2018-05-02T15:43:55.336Z,24.30
2018-05-02T15:46:22.780Z,24.50
2018-05-02T15:48:50.236Z,25.10
2018-05-02T15:51:17.694Z,24.60
2018-05-02T15:53:45.148Z,24.20
2018-05-02T15:56:12.637Z,24.30
2018-05-02T15:58:40.025Z,23.80
2018-05-02T16:01:07.460Z,23.50
2018-05-02T16:03:36.392Z,24.70
2018-05-02T16:06:03.864Z,24.70
2018-05-02T16:08:31.308Z,26.00
2018-05-02T16:10:58.762Z,27.00
2018-05-02T16:13:26.244Z,26.90
2018-05-02T16:15:53.688Z,27.00
2018-05-02T16:18:21.128Z,26.60
2018-05-02T16:20:48.602Z,26.00
2018-05-02T16:23:16.040Z,25.40
2018-05-02T16:25:43.484Z,24.90
2018-05-02T16:28:11.695Z,24.40
2018-05-02T16:30:39.145Z,24.30
2018-05-02T16:33:06.605Z,23.70
2018-05-02T16:35:34.042Z,23.40
2018-05-02T16:38:01.480Z,23.50
2018-05-02T16:40:29.789Z,23.50
2018-05-02T16:42:57.213Z,23.30
2018-05-02T16:45:25.428Z,23.00
2018-05-02T16:47:52.864Z,22.90
2018-05-02T16:50:20.314Z,22.90
2018-05-02T16:52:47.785Z,22.80
2018-05-02T16:55:15.241Z,22.80
2018-05-02T16:57:42.698Z,22.50
2018-05-02T17:00:10.125Z,22.30
2018-05-02T17:02:38.316Z,21.90
2018-05-02T17:05:05.766Z,21.80
2018-05-02T17:07:33.200Z,21.70
2018-05-02T17:10:01.434Z,21.40
2018-05-02T17:12:28.867Z,21.30
2018-05-02T17:14:56.312Z,21.40
2018-05-02T17:17:23.744Z,21.40
2018-05-02T17:19:51.954Z,21.30
2018-05-02T17:22:19.418Z,21.20
2018-05-02T17:24:46.838Z,21.30
2018-05-02T17:27:15.146Z,21.40
2018-05-02T17:29:42.593Z,21.40
2018-05-02T17:32:10.035Z,21.60
2018-05-02T17:34:37.511Z,21.60
2018-05-02T17:37:04.937Z,21.60
2018-05-02T17:39:33.141Z,21.90
2018-05-02T17:42:00.569Z,21.80
2018-05-02T17:44:28.771Z,22.30
2018-05-02T17:46:56.205Z,22.30
2018-05-02T17:49:23.640Z,22.40
2018-05-02T17:51:51.856Z,22.00
2018-05-02T17:54:19.314Z,22.00
2018-05-02T17:56:46.740Z,22.00
2018-05-02T17:59:14.947Z,21.60
2018-05-02T18:01:42.404Z,21.50
2018-05-02T18:04:09.821Z,21.30
2018-05-02T18:06:38.017Z,20.50
2018-05-02T18:09:05.468Z,20.50
2018-05-02T18:11:32.913Z,20.30
2018-05-02T18:14:01.942Z,19.60
2018-05-02T18:16:29.373Z,19.60
2018-05-02T18:18:56.807Z,19.30
2018-05-02T18:21:25.018Z,18.80
2018-05-02T18:23:52.454Z,18.70
2018-05-02T18:26:19.884Z,18.70
2018-05-02T18:28:47.405Z,18.50
2018-05-02T18:31:14.865Z,18.40
2018-05-02T18:33:42.281Z,18.30
2018-05-02T18:36:09.730Z,18.20
2018-05-02T18:38:37.160Z,18.00
2018-05-02T18:41:04.668Z,17.70
2018-05-02T18:43:32.120Z,17.50
2018-05-02T18:45:59.585Z,17.40
2018-05-02T18:48:27.025Z,17.30
2018-05-02T18:50:54.525Z,17.20
2018-05-02T18:53:21.948Z,17.00
2018-05-02T18:55:49.423Z,16.80
2018-05-02T18:58:16.856Z,16.60
2018-05-02T19:00:44.289Z,16.60
2018-05-02T19:03:12.596Z,16.30
2018-05-02T19:05:40.021Z,16.20
2018-05-02T19:08:08.208Z,16.10
2018-05-02T19:10:35.784Z,16.00
2018-05-02T19:13:03.196Z,16.00
2018-05-02T19:15:31.403Z,15.80
2018-05-02T19:18:04.506Z,15.70
2018-05-02T19:20:38.493Z,15.70
2018-05-02T19:23:05.936Z,15.70
2018-05-02T19:25:39.845Z,15.60
2018-05-02T19:28:08.072Z,15.60
2018-05-02T19:30:35.525Z,15.60
2018-05-02T19:33:08.596Z,15.60
2018-05-02T19:35:36.034Z,15.50
2018-05-02T19:38:04.245Z,15.40
2018-05-02T19:40:37.367Z,15.30
2018-05-02T19:43:10.529Z,15.30
2018-05-02T19:45:37.973Z,15.30
2018-05-02T19:48:05.400Z,15.20
2018-05-02T19:50:32.977Z,15.30
2018-05-02T19:53:00.536Z,15.20
2018-05-02T19:55:27.956Z,15.20
2018-05-02T19:57:56.278Z,15.00
2018-05-02T20:00:29.392Z,15.00
2018-05-02T20:03:00.670Z,15.00
2018-05-02T20:05:28.860Z,14.90
2018-05-02T20:07:56.301Z,14.90
2018-05-02T20:10:30.324Z,14.90
2018-05-02T20:13:03.521Z,14.80
2018-05-02T20:15:30.979Z,14.90
2018-05-02T20:17:58.428Z,14.80
2018-05-02T20:20:25.862Z,14.80
2018-05-02T20:22:54.070Z,14.60
2018-05-02T20:25:21.573Z,14.50
2018-05-02T20:27:49.088Z,14.50
2018-05-02T20:30:16.572Z,14.50
2018-05-02T20:32:44.102Z,14.40
2018-05-02T20:35:11.542Z,14.30
2018-05-02T20:37:39.038Z,14.30
2018-05-02T20:40:07.294Z,14.30
2018-05-02T20:42:34.766Z,14.30
2018-05-02T20:45:02.310Z,14.20
2018-05-02T20:47:29.755Z,14.20
2018-05-02T20:49:57.175Z,14.20
2018-05-02T20:52:25.389Z,14.20
2018-05-02T20:54:52.875Z,14.10
2018-05-02T20:57:20.340Z,14.20
2018-05-02T20:59:47.775Z,14.20
2018-05-02T21:02:15.230Z,14.20
2018-05-02T21:04:42.672Z,14.10
2018-05-02T21:07:10.117Z,14.00
2018-05-02T21:09:37.549Z,13.90
2018-05-02T21:12:05.793Z,13.70
2018-05-02T21:14:33.286Z,13.70
2018-05-02T21:17:00.692Z,13.80
2018-05-02T21:19:28.134Z,13.70
2018-05-02T21:21:55.608Z,13.70
2018-05-02T21:24:23.144Z,13.70
2018-05-02T21:26:50.569Z,13.70
2018-05-02T21:29:18.784Z,13.60
2018-05-02T21:31:46.241Z,13.50
2018-05-02T21:34:13.683Z,13.60
2018-05-02T21:36:41.092Z,13.60
2018-05-02T21:39:09.343Z,13.50
2018-05-02T21:41:36.776Z,13.50
2018-05-02T21:44:04.257Z,13.40
2018-05-02T21:46:31.713Z,13.40
2018-05-02T21:48:59.163Z,13.40
2018-05-02T21:51:26.585Z,13.30
2018-05-02T21:53:54.013Z,13.30
2018-05-02T21:56:22.207Z,13.30
2018-05-02T21:58:49.639Z,13.30
2018-05-02T22:01:17.845Z,13.20
2018-05-02T22:03:45.296Z,13.20
2018-05-02T22:06:12.717Z,13.20
2018-05-02T22:08:40.168Z,13.20
2018-05-02T22:11:07.613Z,13.10
2018-05-02T22:13:35.048Z,13.10
2018-05-02T22:16:02.513Z,13.10
2018-05-02T22:18:29.966Z,13.00
2018-05-02T22:20:57.388Z,13.00
2018-05-02T22:23:24.830Z,13.00
2018-05-02T22:25:52.276Z,13.00
2018-05-02T22:28:20.468Z,13.00
2018-05-02T22:30:47.908Z,12.90
2018-05-02T22:33:16.185Z,12.90
2018-05-02T22:35:43.542Z,12.80
2018-05-02T22:38:11.736Z,12.80
2018-05-02T22:40:39.184Z,12.70
2018-05-02T22:43:06.628Z,12.80
2018-05-02T22:45:34.132Z,12.70
2018-05-02T22:48:01.566Z,12.60
2018-05-02T22:50:29.016Z,12.70
2018-05-02T22:52:56.457Z,12.70
2018-05-02T22:55:23.954Z,12.60
2018-05-02T22:57:51.394Z,12.60
2018-05-02T23:00:18.836Z,12.60
2018-05-02T23:02:46.340Z,12.60
2018-05-02T23:05:13.763Z,12.60
2018-05-02T23:07:41.209Z,12.60
2018-05-02T23:10:08.643Z,12.50
2018-05-02T23:12:36.849Z,12.50
2018-05-02T23:15:04.316Z,12.40
2018-05-02T23:17:31.864Z,12.50
2018-05-02T23:19:59.293Z,12.50
2018-05-02T23:22:27.484Z,12.30
2018-05-02T23:24:54.974Z,12.30
2018-05-02T23:27:22.418Z,12.30
2018-05-02T23:29:49.863Z,12.30
2018-05-02T23:32:17.322Z,12.30
2018-05-02T23:34:44.754Z,12.30
2018-05-02T23:37:12.954Z,12.30
2018-05-02T23:39:40.387Z,12.30
2018-05-02T23:42:07.880Z,12.30
2018-05-02T23:44:35.335Z,12.30
2018-05-02T23:47:02.796Z,12.20
2018-05-02T23:49:30.237Z,12.20
2018-05-02T23:51:57.707Z,12.20
2018-05-02T23:54:25.140Z,12.20
2018-05-02T23:56:52.577Z,12.10
2018-05-02T23:59:20.001Z,12.10
